Terminal Aerodrome Forecast
Issued by NWS

Home | Current Version | Previous Version | Text Only | Print | Product List | Glossary On
Versions: 1 2 3 4 5 6 7 8 9 10 11 12 13 14 15 16 17 18 19 20 21 22 23 24 25 26 27 28 29 30 31 32
000
FTUS43 KDDC 182322 AAA
TAFGCK
TAF AMD
KGCK 182322Z 1823/1924 04008KT P6SM SCT060 BKN200
     FM190300 01012KT P6SM VCTS BKN060CB
      TEMPO 1903/1906 VRB25G45KT TSRA OVC060CB
     FM190600 35009KT P6SM VCSH OVC060
     FM190900 35007KT P6SM OVC030
     FM191500 34007KT P6SM BKN080=

USA.gov is the U.S. government's official web portal to all federal, state and local government web resources and services.